Time;durP1;ratioP1;P1;durP2;ratioP2;P2;SDS_P1;SDS_P2;PMS_P1;PMS_P2;Temp;Humidity;BMP_temperature;BMP_pressure;BME280_temperature;BME280_humidity;BME280_pressure;Samples;Min_cycle;Max_cycle;Signal;HPM_P1;HPM_P2
2022/10/20 00:02:21;;;;;;;11.07;8.70;;;;;;;;;;5045609;28;20051;-73
2022/10/20 00:04:47;;;;;;;15.90;10.93;;;;;;;;;;5051396;28;20029;-76
2022/10/20 00:07:15;;;;;;;11.20;8.50;;;;;;;;;;5062913;28;20490;-74
2022/10/20 00:09:41;;;;;;;14.85;8.63;;;;;;;;;;5049231;28;20079;-73
2022/10/20 00:12:09;;;;;;;17.83;10.55;;;;;;;;;;5046141;28;20037;-73
2022/10/20 00:14:35;;;;;;;13.55;10.43;;;;;;;;;;5057331;28;20556;-74
2022/10/20 00:17:05;;;;;;;13.18;10.35;;;;;;;;;;5049952;28;20024;-73
2022/10/20 00:19:33;;;;;;;20.35;11.30;;;;;;;;;;5044305;28;20028;-74
2022/10/20 00:21:59;;;;;;;13.65;10.77;;;;;;;;;;5044750;28;20441;-71
2022/10/20 00:24:27;;;;;;;14.73;10.38;;;;;;;;;;5054779;28;20032;-71
2022/10/20 00:26:53;;;;;;;11.63;7.95;;;;;;;;;;5048075;28;20021;-72
2022/10/20 00:29:21;;;;;;;13.93;9.98;;;;;;;;;;5047957;28;20036;-72
2022/10/20 00:31:49;;;;;;;14.27;9.45;;;;;;;;;;5046380;28;20037;-72
2022/10/20 00:34:18;;;;;;;13.95;9.38;;;;;;;;;;5047477;28;20505;-72
2022/10/20 00:36:46;;;;;;;13.48;9.30;;;;;;;;;;5056125;28;20032;-72
2022/10/20 00:39:11;;;;;;;12.20;8.25;;;;;;;;;;5046543;28;20536;-73
2022/10/20 00:41:39;;;;;;;12.70;8.95;;;;;;;;;;5048043;28;20052;-72
2022/10/20 00:44:27;;;;;;;11.27;8.48;;;;;;;;;;5048563;28;20100;-72
2022/10/20 00:46:55;;;;;;;14.35;10.63;;;;;;;;;;5060842;28;20040;-73
2022/10/20 00:49:24;;;;;;;12.70;10.70;;;;;;;;;;5045292;28;20386;-73
2022/10/20 00:51:53;;;;;;;16.52;8.70;;;;;;;;;;5045248;28;20033;-72
2022/10/20 00:54:22;;;;;;;14.45;8.88;;;;;;;;;;5046876;28;20028;-73
2022/10/20 00:56:53;;;;;;;12.50;9.50;;;;;;;;;;5046534;28;20084;-73
2022/10/20 00:59:21;;;;;;;18.15;10.25;;;;;;;;;;5047650;28;20048;-73
2022/10/20 01:01:48;;;;;;;20.08;9.48;;;;;;;;;;5048551;28;20037;-73
2022/10/20 01:04:14;;;;;;;12.98;10.27;;;;;;;;;;5047839;28;20033;-72
2022/10/20 01:06:44;;;;;;;15.73;9.63;;;;;;;;;;5045617;28;20028;-73
2022/10/20 01:09:10;;;;;;;11.52;9.00;;;;;;;;;;5047812;28;20056;-73
2022/10/20 01:11:48;;;;;;;12.00;9.05;;;;;;;;;;5045948;28;20511;-73
2022/10/20 01:14:33;;;;;;;27.80;9.70;;;;;;;;;;5053750;28;20104;-72
2022/10/20 01:17:22;;;;;;;11.80;9.23;;;;;;;;;;5051017;28;20035;-73
2022/10/20 01:19:53;;;;;;;17.20;11.60;;;;;;;;;;5003555;28;20044;-72
2022/10/20 01:22:24;;;;;;;14.65;9.68;;;;;;;;;;5046310;28;20044;-72
2022/10/20 01:25:09;;;;;;;13.93;9.90;;;;;;;;;;5049125;28;20025;-72
2022/10/20 01:27:43;;;;;;;14.25;10.98;;;;;;;;;;5033417;28;20032;-73
2022/10/20 01:30:09;;;;;;;12.60;9.57;;;;;;;;;;5029230;28;20022;-72
2022/10/20 01:32:37;;;;;;;14.07;10.07;;;;;;;;;;5047509;28;20048;-72
2022/10/20 01:35:21;;;;;;;10.80;8.05;;;;;;;;;;5049330;28;20021;-73
2022/10/20 01:37:50;;;;;;;13.30;9.30;;;;;;;;;;5058905;28;20029;-73
2022/10/20 01:40:22;;;;;;;13.18;7.75;;;;;;;;;;5043392;28;20061;-72
2022/10/20 01:42:49;;;;;;;12.13;8.82;;;;;;;;;;5048328;28;20487;-72
2022/10/20 01:45:19;;;;;;;13.65;9.82;;;;;;;;;;5049140;28;20037;-73
2022/10/20 01:47:46;;;;;;;17.73;9.23;;;;;;;;;;5047469;28;20025;-73
2022/10/20 01:50:16;;;;;;;13.38;8.95;;;;;;;;;;5049567;28;20052;-73
2022/10/20 01:52:48;;;;;;;13.35;10.40;;;;;;;;;;5031582;28;20037;-73
2022/10/20 01:55:16;;;;;;;14.10;10.23;;;;;;;;;;5051007;28;20032;-72
2022/10/20 01:58:05;;;;;;;8.35;7.15;;;;;;;;;;5050815;28;20025;-72
2022/10/20 02:00:35;;;;;;;18.35;9.23;;;;;;;;;;5049337;28;20483;-74
2022/10/20 02:03:09;;;;;;;13.07;8.00;;;;;;;;;;5042468;28;20029;-73
2022/10/20 02:05:45;;;;;;;18.77;9.02;;;;;;;;;;5048163;28;20032;-72
2022/10/20 02:08:35;;;;;;;13.45;8.93;;;;;;;;;;5045880;28;20033;-73
2022/10/20 02:11:04;;;;;;;14.57;9.35;;;;;;;;;;5047388;28;20033;-71
2022/10/20 02:13:34;;;;;;;20.02;10.60;;;;;;;;;;5045945;28;20025;-73
2022/10/20 02:16:09;;;;;;;11.00;8.98;;;;;;;;;;5048207;28;20033;-72
2022/10/20 02:18:41;;;;;;;10.73;7.75;;;;;;;;;;5063184;28;20024;-73
2022/10/20 02:21:10;;;;;;;18.77;10.85;;;;;;;;;;5047603;28;20029;-73
2022/10/20 02:23:37;;;;;;;12.82;9.23;;;;;;;;;;5051344;28;20028;-73
2022/10/20 02:26:11;;;;;;;11.80;8.95;;;;;;;;;;5050248;28;20025;-73
2022/10/20 02:28:41;;;;;;;12.98;8.05;;;;;;;;;;5051217;28;20025;-73
2022/10/20 02:31:10;;;;;;;11.88;8.70;;;;;;;;;;5054675;28;20024;-73
2022/10/20 02:33:41;;;;;;;10.00;8.95;;;;;;;;;;5050673;28;20048;-73
2022/10/20 02:36:16;;;;;;;13.15;8.80;;;;;;;;;;5050959;28;20036;-73
2022/10/20 02:38:44;;;;;;;11.68;8.27;;;;;;;;;;5047452;28;20048;-73
2022/10/20 02:41:12;;;;;;;10.68;8.07;;;;;;;;;;5053387;28;20036;-73
2022/10/20 02:43:40;;;;;;;8.50;7.60;;;;;;;;;;5050761;28;20029;-72
2022/10/20 02:46:06;;;;;;;14.50;8.48;;;;;;;;;;5049734;28;20029;-72
2022/10/20 02:48:32;;;;;;;11.98;8.55;;;;;;;;;;5045989;28;20028;-72
2022/10/20 02:51:00;;;;;;;11.57;8.50;;;;;;;;;;5060064;28;20482;-72
2022/10/20 02:53:28;;;;;;;10.85;9.15;;;;;;;;;;5055405;28;20504;-72
2022/10/20 02:55:57;;;;;;;14.25;8.10;;;;;;;;;;5047845;28;20387;-72
2022/10/20 02:58:28;;;;;;;14.93;10.07;;;;;;;;;;5049847;28;20025;-72
2022/10/20 03:00:54;;;;;;;12.82;8.48;;;;;;;;;;5049332;28;20028;-72
2022/10/20 03:03:24;;;;;;;12.00;9.18;;;;;;;;;;5049525;28;20478;-72
2022/10/20 03:05:53;;;;;;;23.30;11.68;;;;;;;;;;5048966;28;20033;-73
2022/10/20 03:08:19;;;;;;;10.73;7.60;;;;;;;;;;5046863;28;20033;-73
2022/10/20 03:10:44;;;;;;;35.17;9.45;;;;;;;;;;5048907;28;20057;-73
2022/10/20 03:13:15;;;;;;;12.50;8.60;;;;;;;;;;5050813;28;20040;-72
2022/10/20 03:15:43;;;;;;;11.55;7.30;;;;;;;;;;5046211;28;20040;-73
2022/10/20 03:18:11;;;;;;;20.00;8.93;;;;;;;;;;5048632;28;20033;-73
2022/10/20 03:20:44;;;;;;;12.40;8.85;;;;;;;;;;5046124;28;20403;-73
2022/10/20 03:23:12;;;;;;;16.10;10.32;;;;;;;;;;5052882;28;20029;-73
2022/10/20 03:25:38;;;;;;;13.30;9.77;;;;;;;;;;5047410;28;20124;-73
2022/10/20 03:28:09;;;;;;;11.18;8.52;;;;;;;;;;5050547;28;20036;-73
2022/10/20 03:30:35;;;;;;;11.25;8.15;;;;;;;;;;5049476;28;20108;-73
2022/10/20 03:33:03;;;;;;;13.13;8.45;;;;;;;;;;5055327;28;20013;-73
2022/10/20 03:35:34;;;;;;;12.35;9.82;;;;;;;;;;5048166;28;20036;-74
2022/10/20 03:38:00;;;;;;;12.20;8.63;;;;;;;;;;5049125;28;20024;-73
2022/10/20 03:40:25;;;;;;;11.82;7.40;;;;;;;;;;5046851;28;20052;-73
2022/10/20 03:42:51;;;;;;;10.80;8.40;;;;;;;;;;5047711;28;20025;-73
2022/10/20 03:45:19;;;;;;;9.68;8.05;;;;;;;;;;5060369;28;20033;-73
2022/10/20 03:47:45;;;;;;;12.70;8.82;;;;;;;;;;5049064;28;20116;-73
2022/10/20 03:50:13;;;;;;;14.45;9.88;;;;;;;;;;5049683;28;20041;-73
2022/10/20 03:52:44;;;;;;;11.45;6.90;;;;;;;;;;5060840;28;20028;-73
2022/10/20 03:55:10;;;;;;;13.23;7.97;;;;;;;;;;5055726;28;20406;-73
2022/10/20 03:57:38;;;;;;;9.95;7.95;;;;;;;;;;5049444;28;20112;-73
2022/10/20 04:00:07;;;;;;;13.35;9.70;;;;;;;;;;5047579;28;20036;-72
2022/10/20 04:02:39;;;;;;;14.60;10.05;;;;;;;;;;5048447;28;20055;-72
2022/10/20 04:05:06;;;;;;;11.73;9.90;;;;;;;;;;5052485;28;20029;-72
2022/10/20 04:07:32;;;;;;;14.32;8.00;;;;;;;;;;5070065;28;20029;-72
2022/10/20 04:10:00;;;;;;;13.23;9.27;;;;;;;;;;5075301;28;20040;-73
2022/10/20 04:12:29;;;;;;;10.93;8.70;;;;;;;;;;5077286;28;20029;-72
2022/10/20 04:15:00;;;;;;;12.20;8.93;;;;;;;;;;5068442;28;20036;-73
2022/10/20 04:17:30;;;;;;;12.13;9.32;;;;;;;;;;5052473;28;20028;-72
2022/10/20 04:19:56;;;;;;;15.65;9.95;;;;;;;;;;5047063;28;20017;-73
2022/10/20 04:22:24;;;;;;;11.85;8.48;;;;;;;;;;5051890;28;20060;-73
2022/10/20 04:24:52;;;;;;;13.52;9.77;;;;;;;;;;5051487;28;20546;-73
2022/10/20 04:27:18;;;;;;;12.48;9.02;;;;;;;;;;5046455;28;20039;-73
2022/10/20 04:29:45;;;;;;;14.00;9.85;;;;;;;;;;5060534;28;20436;-73
2022/10/20 04:32:11;;;;;;;15.32;9.70;;;;;;;;;;5034049;28;20048;-73
2022/10/20 04:34:36;;;;;;;12.57;9.98;;;;;;;;;;5043562;28;20033;-74
2022/10/20 04:37:07;;;;;;;11.25;9.43;;;;;;;;;;5055520;28;20040;-73
2022/10/20 04:39:33;;;;;;;32.30;11.90;;;;;;;;;;5047253;28;20036;-73
2022/10/20 04:42:01;;;;;;;13.07;9.85;;;;;;;;;;5044037;28;20406;-73
2022/10/20 04:44:29;;;;;;;17.33;9.27;;;;;;;;;;5041982;28;20037;-74
2022/10/20 04:46:55;;;;;;;13.02;10.85;;;;;;;;;;5051413;28;20033;-73
2022/10/20 04:49:24;;;;;;;16.35;10.25;;;;;;;;;;5033445;28;20036;-73
2022/10/20 04:51:49;;;;;;;13.25;10.20;;;;;;;;;;5063299;22;20479;-81
2022/10/20 04:54:18;;;;;;;16.60;11.02;;;;;;;;;;5043701;28;20487;-80
2022/10/20 04:56:46;;;;;;;11.98;10.43;;;;;;;;;;5047057;28;20032;-80
2022/10/20 04:59:12;;;;;;;15.75;11.23;;;;;;;;;;5049895;28;20037;-80
2022/10/20 05:01:40;;;;;;;14.93;9.98;;;;;;;;;;5025148;28;20025;-80
2022/10/20 05:04:19;;;;;;;14.13;11.43;;;;;;;;;;5021519;28;20469;-80
2022/10/20 05:06:45;;;;;;;17.75;13.00;;;;;;;;;;5012651;28;20030;-80
2022/10/20 05:09:11;;;;;;;19.35;11.55;;;;;;;;;;5020368;28;20025;-80
2022/10/20 05:11:37;;;;;;;15.05;10.18;;;;;;;;;;5021584;28;20036;-81
2022/10/20 05:14:03;;;;;;;21.00;11.52;;;;;;;;;;5026804;28;20029;-79
2022/10/20 05:16:29;;;;;;;16.45;11.48;;;;;;;;;;5028663;28;20036;-79
2022/10/20 05:18:58;;;;;;;16.35;10.75;;;;;;;;;;5017623;28;20483;-79
2022/10/20 05:21:25;;;;;;;17.48;13.18;;;;;;;;;;5021413;28;20037;-79
2022/10/20 05:23:58;;;;;;;14.52;12.70;;;;;;;;;;5025225;28;20036;-79
2022/10/20 05:26:25;;;;;;;14.90;11.02;;;;;;;;;;4999541;28;20041;-79
2022/10/20 05:28:53;;;;;;;27.60;11.88;;;;;;;;;;5029515;28;20033;-81
2022/10/20 05:31:22;;;;;;;21.08;14.18;;;;;;;;;;5029170;28;20040;-80
2022/10/20 05:33:49;;;;;;;26.52;11.98;;;;;;;;;;5037045;28;20295;-82
2022/10/20 05:36:16;;;;;;;19.80;13.98;;;;;;;;;;5027435;28;20483;-82
2022/10/20 05:38:46;;;;;;;24.38;15.98;;;;;;;;;;5042778;28;20041;-82
2022/10/20 05:41:15;;;;;;;22.88;14.27;;;;;;;;;;5021762;28;20037;-80
2022/10/20 05:43:41;;;;;;;18.17;13.07;;;;;;;;;;5019936;28;20029;-81
2022/10/20 05:46:07;;;;;;;20.58;14.82;;;;;;;;;;5020208;28;20026;-82
2022/10/20 05:48:36;;;;;;;21.27;14.35;;;;;;;;;;5020961;28;20041;-80
2022/10/20 05:51:11;;;;;;;22.33;14.93;;;;;;;;;;5027694;28;20392;-80
2022/10/20 05:53:38;;;;;;;25.08;16.17;;;;;;;;;;5009836;28;20030;-80
2022/10/20 05:56:05;;;;;;;20.63;15.73;;;;;;;;;;5029556;28;20051;-80
2022/10/20 05:58:31;;;;;;;19.83;14.80;;;;;;;;;;5025926;28;20034;-80
2022/10/20 06:01:06;;;;;;;17.73;14.63;;;;;;;;;;5031411;28;20403;-81
2022/10/20 06:03:32;;;;;;;24.33;18.13;;;;;;;;;;5021246;28;20033;-80
2022/10/20 06:05:58;;;;;;;19.70;14.30;;;;;;;;;;5027811;28;20120;-82
2022/10/20 06:08:26;;;;;;;20.45;16.48;;;;;;;;;;5023199;28;20037;-81
2022/10/20 06:10:54;;;;;;;22.38;17.70;;;;;;;;;;5023446;28;20021;-80
2022/10/20 06:13:23;;;;;;;18.02;15.05;;;;;;;;;;5021467;28;20037;-80
2022/10/20 06:15:48;;;;;;;24.55;15.32;;;;;;;;;;5043599;28;20391;-80
2022/10/20 06:18:17;;;;;;;25.73;16.15;;;;;;;;;;5027553;28;20052;-80
2022/10/20 06:20:45;;;;;;;20.98;15.13;;;;;;;;;;5031007;28;20041;-80
2022/10/20 06:23:11;;;;;;;24.60;16.17;;;;;;;;;;5030196;28;20037;-80
2022/10/20 06:25:36;;;;;;;21.38;15.57;;;;;;;;;;5036749;28;20108;-79
2022/10/20 06:28:02;;;;;;;18.63;15.55;;;;;;;;;;5054021;28;20037;-79
2022/10/20 06:30:29;;;;;;;24.13;16.35;;;;;;;;;;5042762;28;20134;-79
2022/10/20 06:32:55;;;;;;;27.40;18.85;;;;;;;;;;5025614;28;20343;-80
2022/10/20 06:35:23;;;;;;;23.35;17.27;;;;;;;;;;5020109;28;20380;-80
2022/10/20 06:37:51;;;;;;;22.35;15.68;;;;;;;;;;5026735;28;20037;-79
2022/10/20 06:40:17;;;;;;;18.05;14.30;;;;;;;;;;5048098;28;20037;-80
2022/10/20 06:42:45;;;;;;;20.95;16.63;;;;;;;;;;5026966;28;20426;-80
2022/10/20 06:45:11;;;;;;;16.90;12.13;;;;;;;;;;5026306;28;20045;-80
2022/10/20 06:47:37;;;;;;;25.80;18.35;;;;;;;;;;5024666;28;20423;-79
2022/10/20 06:50:05;;;;;;;27.30;17.58;;;;;;;;;;5027687;28;20112;-80
2022/10/20 06:52:33;;;;;;;25.58;16.80;;;;;;;;;;5023847;28;20049;-80
2022/10/20 06:55:01;;;;;;;23.77;16.90;;;;;;;;;;5026297;28;20034;-80
2022/10/20 06:57:30;;;;;;;23.42;17.33;;;;;;;;;;5020134;28;20041;-80
2022/10/20 06:59:58;;;;;;;20.42;15.68;;;;;;;;;;5021020;28;20274;-80
2022/10/20 07:02:24;;;;;;;24.17;16.17;;;;;;;;;;5041647;28;20029;-81
2022/10/20 07:04:50;;;;;;;19.67;14.10;;;;;;;;;;5048872;28;20032;-81
2022/10/20 07:07:20;;;;;;;22.33;15.38;;;;;;;;;;5028502;28;20034;-81
2022/10/20 07:09:46;;;;;;;21.92;15.63;;;;;;;;;;5016580;28;20032;-81
2022/10/20 07:12:16;;;;;;;18.15;15.13;;;;;;;;;;5021348;28;20034;-81
2022/10/20 07:14:44;;;;;;;20.27;12.77;;;;;;;;;;5028466;28;20041;-80
2022/10/20 07:17:10;;;;;;;22.80;14.80;;;;;;;;;;5024500;28;20034;-80
2022/10/20 07:19:39;;;;;;;20.30;12.07;;;;;;;;;;5018554;28;20037;-80
2022/10/20 07:22:04;;;;;;;27.45;17.58;;;;;;;;;;5023024;28;20033;-80
2022/10/20 07:24:33;;;;;;;23.85;15.82;;;;;;;;;;5028659;28;20553;-80
2022/10/20 07:26:58;;;;;;;19.48;12.98;;;;;;;;;;5016215;28;20029;-80
2022/10/20 07:29:27;;;;;;;18.77;13.45;;;;;;;;;;5030385;28;20141;-80
2022/10/20 07:31:52;;;;;;;17.30;12.70;;;;;;;;;;5043600;28;20029;-81
2022/10/20 07:34:21;;;;;;;15.10;11.60;;;;;;;;;;5020943;28;20045;-81
2022/10/20 07:36:48;;;;;;;22.55;16.23;;;;;;;;;;5047432;28;20033;-79
2022/10/20 07:39:14;;;;;;;16.88;13.52;;;;;;;;;;5046547;28;20037;-79
2022/10/20 07:41:46;;;;;;;19.50;13.27;;;;;;;;;;5041541;28;20033;-80
2022/10/20 07:44:15;;;;;;;19.85;14.50;;;;;;;;;;5019986;28;20048;-79
2022/10/20 07:46:41;;;;;;;17.98;13.55;;;;;;;;;;5022466;28;20026;-79
2022/10/20 07:49:09;;;;;;;19.35;14.73;;;;;;;;;;5030048;28;20030;-79
2022/10/20 07:51:37;;;;;;;21.50;14.15;;;;;;;;;;5026123;28;20037;-80
2022/10/20 07:54:07;;;;;;;18.88;13.55;;;;;;;;;;5047749;28;20021;-80
2022/10/20 07:56:37;;;;;;;20.15;13.73;;;;;;;;;;5022086;28;20095;-80
2022/10/20 07:59:07;;;;;;;37.65;12.48;;;;;;;;;;5016906;28;20030;-81
2022/10/20 08:01:38;;;;;;;16.52;13.30;;;;;;;;;;5026142;28;20045;-80
2022/10/20 08:04:07;;;;;;;14.77;11.40;;;;;;;;;;5020851;28;20027;-80
2022/10/20 08:06:35;;;;;;;26.67;11.25;;;;;;;;;;5016480;28;20026;-80
2022/10/20 08:09:06;;;;;;;16.30;12.75;;;;;;;;;;5023407;28;20029;-80
2022/10/20 08:11:34;;;;;;;23.77;12.60;;;;;;;;;;5027071;28;20044;-80
2022/10/20 08:14:03;;;;;;;21.13;15.52;;;;;;;;;;5043291;28;20034;-80
2022/10/20 08:16:29;;;;;;;14.98;13.02;;;;;;;;;;5028982;28;20502;-80
2022/10/20 08:18:54;;;;;;;15.50;11.70;;;;;;;;;;5024303;28;20045;-79
2022/10/20 08:21:24;;;;;;;19.63;13.93;;;;;;;;;;5025935;28;20037;-78
2022/10/20 08:23:52;;;;;;;17.00;13.18;;;;;;;;;;5020138;28;20025;-79
2022/10/20 08:26:19;;;;;;;17.83;13.57;;;;;;;;;;5022293;28;20037;-80
2022/10/20 08:28:46;;;;;;;17.23;12.20;;;;;;;;;;5023143;28;20033;-79
2022/10/20 08:31:16;;;;;;;16.55;12.10;;;;;;;;;;5015282;28;20038;-79
2022/10/20 08:33:44;;;;;;;17.90;11.63;;;;;;;;;;5011989;28;20396;-79
2022/10/20 08:36:15;;;;;;;15.93;10.32;;;;;;;;;;5019799;28;20045;-79
2022/10/20 08:38:47;;;;;;;11.50;9.77;;;;;;;;;;5020966;28;20026;-79
2022/10/20 08:41:18;;;;;;;11.18;9.90;;;;;;;;;;5016556;28;20034;-78
2022/10/20 08:43:48;;;;;;;12.40;10.00;;;;;;;;;;5024741;28;20484;-78
2022/10/20 08:46:17;;;;;;;15.32;9.40;;;;;;;;;;4991916;28;20045;-78
2022/10/20 08:48:44;;;;;;;16.67;10.20;;;;;;;;;;5037334;28;20025;-78
2022/10/20 08:51:33;;;;;;;10.07;8.98;;;;;;;;;;5023581;28;20403;-78
2022/10/20 08:54:02;;;;;;;20.48;12.20;;;;;;;;;;5030054;28;20511;-78
2022/10/20 08:56:32;;;;;;;13.40;9.35;;;;;;;;;;5020455;28;20042;-78
2022/10/20 08:58:58;;;;;;;17.98;11.45;;;;;;;;;;5036962;28;20025;-78
2022/10/20 09:01:31;;;;;;;11.82;9.15;;;;;;;;;;5030956;28;20392;-78
2022/10/20 09:04:01;;;;;;;14.85;9.82;;;;;;;;;;5046609;28;20028;-78
2022/10/20 09:06:29;;;;;;;11.57;9.43;;;;;;;;;;5019942;28;20030;-78
2022/10/20 09:08:56;;;;;;;12.73;7.82;;;;;;;;;;5040815;28;20045;-78
2022/10/20 09:11:24;;;;;;;13.02;9.05;;;;;;;;;;5038546;28;20036;-78
2022/10/20 09:13:50;;;;;;;10.98;9.18;;;;;;;;;;5029761;28;20041;-78
2022/10/20 09:16:36;;;;;;;12.80;8.18;;;;;;;;;;5025954;28;20029;-78
2022/10/20 09:19:04;;;;;;;13.57;9.40;;;;;;;;;;5022807;28;20040;-78
2022/10/20 09:21:31;;;;;;;12.60;9.68;;;;;;;;;;5022582;28;20026;-78
2022/10/20 09:24:03;;;;;;;11.80;9.13;;;;;;;;;;5029992;28;20033;-78
2022/10/20 09:26:45;;;;;;;11.95;9.32;;;;;;;;;;5046738;28;20029;-77
2022/10/20 09:29:12;;;;;;;19.33;10.00;;;;;;;;;;5012257;28;20033;-78
2022/10/20 09:31:43;;;;;;;10.30;8.40;;;;;;;;;;5018449;28;20362;-78
2022/10/20 09:34:25;;;;;;;10.30;8.30;;;;;;;;;;5033795;28;20034;-78
2022/10/20 09:36:54;;;;;;;17.25;10.45;;;;;;;;;;5043442;28;20359;-77
2022/10/20 09:39:21;;;;;;;11.88;8.57;;;;;;;;;;5012039;28;20030;-81
2022/10/20 09:41:50;;;;;;;13.20;9.85;;;;;;;;;;5036159;28;20390;-79
2022/10/20 09:44:24;;;;;;;10.88;8.30;;;;;;;;;;5035246;28;20045;-80
2022/10/20 09:46:55;;;;;;;11.07;8.75;;;;;;;;;;5022485;28;20033;-79
2022/10/20 09:49:21;;;;;;;14.02;11.45;;;;;;;;;;5023476;28;20041;-80
2022/10/20 09:51:49;;;;;;;12.45;9.40;;;;;;;;;;5017018;28;20091;-79
2022/10/20 09:54:16;;;;;;;10.32;7.80;;;;;;;;;;5017235;28;20030;-79
2022/10/20 09:56:43;;;;;;;12.23;8.32;;;;;;;;;;5025677;28;20057;-79
2022/10/20 09:59:32;;;;;;;10.73;8.68;;;;;;;;;;5045040;28;20372;-78
2022/10/20 10:02:02;;;;;;;10.02;8.90;;;;;;;;;;5011116;28;20030;-78
2022/10/20 10:04:33;;;;;;;14.70;8.57;;;;;;;;;;5023310;28;20036;-78
2022/10/20 10:07:01;;;;;;;10.55;8.75;;;;;;;;;;5026895;28;20065;-78
2022/10/20 10:09:30;;;;;;;13.32;8.43;;;;;;;;;;5033774;28;20037;-78
2022/10/20 10:12:00;;;;;;;11.07;9.07;;;;;;;;;;5015066;28;20030;-79
2022/10/20 10:14:26;;;;;;;11.70;9.50;;;;;;;;;;5037961;28;20038;-79
2022/10/20 10:16:52;;;;;;;15.10;8.98;;;;;;;;;;5041263;28;20026;-79
2022/10/20 10:19:24;;;;;;;10.98;9.23;;;;;;;;;;5021703;28;20498;-80
2022/10/20 10:21:57;;;;;;;22.08;10.65;;;;;;;;;;5017155;28;20041;-80
2022/10/20 10:24:31;;;;;;;12.68;9.30;;;;;;;;;;5023388;28;20040;-80
2022/10/20 10:26:58;;;;;;;10.25;8.63;;;;;;;;;;5027724;28;20026;-80
2022/10/20 10:29:35;;;;;;;12.90;9.10;;;;;;;;;;5014549;28;20041;-80
2022/10/20 10:32:09;;;;;;;16.05;10.77;;;;;;;;;;5016365;28;20038;-78
2022/10/20 10:34:38;;;;;;;10.98;9.02;;;;;;;;;;5021120;28;20033;-78
2022/10/20 10:37:10;;;;;;;14.45;8.98;;;;;;;;;;5022165;28;20053;-79
2022/10/20 10:39:36;;;;;;;10.20;8.43;;;;;;;;;;5012785;28;20512;-79
2022/10/20 10:42:04;;;;;;;9.65;7.32;;;;;;;;;;5020770;28;20112;-79
2022/10/20 10:44:35;;;;;;;10.07;8.15;;;;;;;;;;5045198;28;20017;-78
2022/10/20 10:47:13;;;;;;;16.95;8.45;;;;;;;;;;5020062;28;20025;-78
2022/10/20 10:49:39;;;;;;;14.60;8.75;;;;;;;;;;5014933;28;20026;-78
2022/10/20 10:52:22;;;;;;;17.65;9.75;;;;;;;;;;5052917;22;20059;-72
2022/10/20 10:55:08;;;;;;;13.50;9.98;;;;;;;;;;5035701;28;20478;-72
2022/10/20 10:57:47;;;;;;;15.95;9.63;;;;;;;;;;5042182;28;20038;-74
2022/10/20 11:00:38;;;;;;;13.90;8.65;;;;;;;;;;5047681;28;20041;-73
2022/10/20 11:03:10;;;;;;;12.43;8.93;;;;;;;;;;5006533;28;20431;-73
2022/10/20 11:05:47;;;;;;;12.77;9.15;;;;;;;;;;5027915;28;20042;-73
2022/10/20 11:08:22;;;;;;;10.55;8.77;;;;;;;;;;5031234;28;20025;-73
2022/10/20 11:11:10;;;;;;;10.95;7.63;;;;;;;;;;5030005;28;20029;-73
2022/10/20 11:13:48;;;;;;;12.38;8.80;;;;;;;;;;5029562;28;20388;-73
2022/10/20 11:16:19;;;;;;;11.65;9.73;;;;;;;;;;5028734;28;20471;-74
2022/10/20 11:19:06;;;;;;;10.85;8.90;;;;;;;;;;5027850;28;20041;-74
2022/10/20 11:21:48;;;;;;;16.00;10.15;;;;;;;;;;5029030;28;20388;-73
2022/10/20 11:24:16;;;;;;;12.98;8.18;;;;;;;;;;5032051;28;20041;-73
2022/10/20 11:26:44;;;;;;;14.43;9.07;;;;;;;;;;5030917;28;20036;-73
2022/10/20 11:29:23;;;;;;;10.75;8.57;;;;;;;;;;5031847;28;20033;-73
2022/10/20 11:31:48;;;;;;;12.95;8.95;;;;;;;;;;5032018;28;20056;-73
2022/10/20 11:34:22;;;;;;;11.40;8.07;;;;;;;;;;5022902;28;20479;-73
2022/10/20 11:36:50;;;;;;;10.57;9.23;;;;;;;;;;5031580;28;20032;-73
2022/10/20 11:39:24;;;;;;;9.20;8.27;;;;;;;;;;5032481;28;20037;-73
2022/10/20 11:41:52;;;;;;;11.50;9.45;;;;;;;;;;5031258;28;20033;-73
2022/10/20 11:44:29;;;;;;;10.85;7.78;;;;;;;;;;5033188;28;20025;-73
2022/10/20 11:47:23;;;;;;;10.77;9.32;;;;;;;;;;5025097;28;20048;-72
2022/10/20 11:49:50;;;;;;;11.27;10.18;;;;;;;;;;5008302;28;20494;-73
2022/10/20 11:52:19;;;;;;;16.77;8.70;;;;;;;;;;5029815;28;20411;-73
2022/10/20 11:54:50;;;;;;;11.38;8.50;;;;;;;;;;5031224;28;20048;-73
2022/10/20 11:57:17;;;;;;;12.75;8.88;;;;;;;;;;5025756;28;20064;-73
2022/10/20 12:00:04;;;;;;;10.80;9.32;;;;;;;;;;5013451;28;20037;-73
2022/10/20 12:02:35;;;;;;;8.75;7.85;;;;;;;;;;5030163;28;20052;-73
2022/10/20 12:05:13;;;;;;;9.25;8.10;;;;;;;;;;5021994;28;20487;-73
2022/10/20 12:07:45;;;;;;;22.77;9.60;;;;;;;;;;5010623;28;20033;-73
2022/10/20 12:10:16;;;;;;;7.70;6.97;;;;;;;;;;5011699;28;21502;-73
2022/10/20 12:12:42;;;;;;;11.13;7.93;;;;;;;;;;5011536;28;20044;-72
2022/10/20 12:15:21;;;;;;;12.32;8.85;;;;;;;;;;5018358;28;20025;-72
2022/10/20 12:17:48;;;;;;;10.68;8.82;;;;;;;;;;5025799;28;20037;-72
2022/10/20 12:20:20;;;;;;;12.60;8.25;;;;;;;;;;5013016;28;20048;-72
2022/10/20 12:22:52;;;;;;;8.52;7.18;;;;;;;;;;5029817;28;20032;-72
2022/10/20 12:25:24;;;;;;;13.73;9.07;;;;;;;;;;5012441;28;20032;-73
2022/10/20 12:28:09;;;;;;;13.82;8.90;;;;;;;;;;5008284;28;20029;-72
2022/10/20 12:30:37;;;;;;;12.65;8.38;;;;;;;;;;5022255;28;20040;-72
2022/10/20 12:33:14;;;;;;;10.38;7.55;;;;;;;;;;5028569;28;20033;-72
2022/10/20 12:36:09;;;;;;;14.23;9.33;;;;;;;;;;5030694;28;20038;-72
2022/10/20 12:38:37;;;;;;;11.90;9.35;;;;;;;;;;5016650;28;20049;-73
2022/10/20 12:41:03;;;;;;;35.10;8.13;;;;;;;;;;5028410;28;20060;-72
2022/10/20 12:43:32;;;;;;;12.88;7.78;;;;;;;;;;5014728;28;20403;-73
2022/10/20 12:46:05;;;;;;;10.77;8.82;;;;;;;;;;5026915;28;20172;-73
2022/10/20 12:48:34;;;;;;;13.85;9.07;;;;;;;;;;5025514;28;20025;-73
2022/10/20 12:51:07;;;;;;;11.32;8.05;;;;;;;;;;5026946;28;20025;-73
2022/10/20 12:53:36;;;;;;;12.32;8.20;;;;;;;;;;5007056;28;20480;-73
2022/10/20 12:56:06;;;;;;;12.00;8.38;;;;;;;;;;5001759;28;20048;-73
2022/10/20 12:58:33;;;;;;;11.10;7.80;;;;;;;;;;5030434;28;20476;-73
2022/10/20 13:01:04;;;;;;;12.40;9.48;;;;;;;;;;5012843;28;20025;-73
2022/10/20 13:03:40;;;;;;;14.63;9.77;;;;;;;;;;5030633;28;20036;-72
2022/10/20 13:06:21;;;;;;;11.10;9.18;;;;;;;;;;5031089;28;20034;-73
2022/10/20 13:09:01;;;;;;;9.90;8.82;;;;;;;;;;5008715;28;20395;-73
2022/10/20 13:11:39;;;;;;;12.75;8.95;;;;;;;;;;5024432;28;20399;-73
2022/10/20 13:14:25;;;;;;;13.40;7.95;;;;;;;;;;5027971;28;20030;-73
2022/10/20 13:17:00;;;;;;;11.30;9.38;;;;;;;;;;5029033;28;20029;-73
2022/10/20 13:19:35;;;;;;;11.48;8.60;;;;;;;;;;5024986;28;20049;-73
2022/10/20 13:22:20;;;;;;;10.25;8.25;;;;;;;;;;5025432;28;20033;-73
2022/10/20 13:24:54;;;;;;;12.50;8.02;;;;;;;;;;5014738;28;20060;-73
2022/10/20 13:27:22;;;;;;;10.68;8.50;;;;;;;;;;5011578;28;20048;-74
2022/10/20 13:29:50;;;;;;;12.90;9.32;;;;;;;;;;5026540;28;20394;-71
2022/10/20 13:32:33;;;;;;;15.07;7.80;;;;;;;;;;5007390;28;20038;-73
2022/10/20 13:35:03;;;;;;;11.05;8.10;;;;;;;;;;5029741;28;20033;-73
2022/10/20 13:37:49;;;;;;;9.00;7.28;;;;;;;;;;5022003;28;20038;-73
2022/10/20 13:40:35;;;;;;;10.63;8.77;;;;;;;;;;5012520;28;20041;-75
2022/10/20 13:43:04;;;;;;;9.55;7.47;;;;;;;;;;5026148;28;20368;-73
2022/10/20 13:46:02;;;;;;;12.90;7.95;;;;;;;;;;5005579;28;20033;-73
2022/10/20 13:48:39;;;;;;;12.55;8.77;;;;;;;;;;4988527;28;20042;-73
2022/10/20 13:51:18;;;;;;;10.45;9.35;;;;;;;;;;5024090;28;20037;-73
2022/10/20 13:53:45;;;;;;;10.45;7.57;;;;;;;;;;5022190;28;20499;-72
2022/10/20 13:56:14;;;;;;;8.93;7.22;;;;;;;;;;5023336;28;20037;-73
2022/10/20 13:58:41;;;;;;;13.70;8.23;;;;;;;;;;5030564;28;20038;-72
2022/10/20 14:01:23;;;;;;;10.50;7.97;;;;;;;;;;5026679;28;20041;-73
2022/10/20 14:03:52;;;;;;;9.27;7.28;;;;;;;;;;5006610;28;20748;-72
2022/10/20 14:06:27;;;;;;;8.20;7.35;;;;;;;;;;5015280;28;20025;-73
2022/10/20 14:08:56;;;;;;;14.55;8.70;;;;;;;;;;5030650;28;20033;-73
2022/10/20 14:11:28;;;;;;;11.88;7.18;;;;;;;;;;5023618;28;20029;-73
2022/10/20 14:13:58;;;;;;;10.13;6.75;;;;;;;;;;5023772;28;20038;-73
2022/10/20 14:16:27;;;;;;;8.77;6.70;;;;;;;;;;5021448;28;20025;-73
2022/10/20 14:19:14;;;;;;;30.20;7.82;;;;;;;;;;5007863;28;20037;-73
2022/10/20 14:21:39;;;;;;;11.18;7.00;;;;;;;;;;5025223;28;20029;-73
2022/10/20 14:24:13;;;;;;;9.60;7.68;;;;;;;;;;5029874;28;20120;-73
2022/10/20 14:26:42;;;;;;;12.73;7.70;;;;;;;;;;5019560;28;20036;-73
2022/10/20 14:29:11;;;;;;;7.97;7.18;;;;;;;;;;5016614;28;20040;-73
2022/10/20 14:31:39;;;;;;;9.85;7.65;;;;;;;;;;5029758;28;20026;-73
2022/10/20 14:34:14;;;;;;;10.32;7.60;;;;;;;;;;5024532;28;20033;-73
2022/10/20 14:36:42;;;;;;;13.95;8.32;;;;;;;;;;5025069;28;20029;-73
2022/10/20 14:39:22;;;;;;;26.02;7.57;;;;;;;;;;5034586;28;20037;-73
2022/10/20 14:41:47;;;;;;;11.02;7.47;;;;;;;;;;5010818;28;20049;-73
2022/10/20 14:44:18;;;;;;;9.68;8.20;;;;;;;;;;5031661;28;20118;-73
2022/10/20 14:46:45;;;;;;;8.55;7.25;;;;;;;;;;5029716;28;20030;-73